createdAt,value
2022-08-07T00:02:40.730Z,92417.75
2022-08-07T00:05:31.777Z,92420.03
2022-08-07T00:08:23.840Z,92415.09
2022-08-07T00:11:11.435Z,92416.25
2022-08-07T00:13:59.462Z,92414.72
2022-08-07T00:16:47.064Z,92405.47
2022-08-07T00:20:01.546Z,92404.66
2022-08-07T00:22:42.753Z,92399.19
2022-08-07T00:25:41.488Z,92404.50
2022-08-07T00:28:33.164Z,92398.38
2022-08-07T00:31:21.823Z,92395.41
2022-08-07T00:34:09.825Z,92394.31
2022-08-07T00:36:57.563Z,92390.44
2022-08-07T00:39:45.431Z,92392.78
2022-08-07T00:42:42.289Z,92395.00
2022-08-07T00:45:30.232Z,92393.91
2022-08-07T00:48:19.128Z,92385.56
2022-08-07T00:51:12.740Z,92393.16
2022-08-07T00:54:00.379Z,92385.19
2022-08-07T00:56:49.617Z,92388.25
2022-08-07T00:59:37.613Z,92382.56
2022-08-07T01:02:29.334Z,92378.41
2022-08-07T01:05:19.002Z,92370.84
2022-08-07T01:08:09.123Z,92368.16
2022-08-07T01:10:56.817Z,92376.09
2022-08-07T01:13:55.699Z,92375.59
2022-08-07T01:16:47.372Z,92372.56
2022-08-07T01:19:38.450Z,92364.72
2022-08-07T01:22:29.221Z,92360.53
2022-08-07T01:25:53.745Z,92368.88
2022-08-07T01:28:24.897Z,92367.00
2022-08-07T01:31:15.522Z,92374.97
2022-08-07T01:34:05.555Z,92371.88
2022-08-07T01:36:57.954Z,92368.53
2022-08-07T01:39:46.887Z,92378.75
2022-08-07T01:42:40.292Z,92389.69
2022-08-07T01:45:42.328Z,92390.50
2022-08-07T01:48:34.466Z,92396.16
2022-08-07T01:52:02.129Z,92393.50
2022-08-07T01:54:32.897Z,92391.13
2022-08-07T01:57:25.149Z,92384.06
2022-08-07T02:00:13.719Z,92390.84
2022-08-07T02:03:19.334Z,92392.00
2022-08-07T02:06:30.971Z,92382.94
2022-08-07T02:09:33.916Z,92385.56
2022-08-07T02:12:30.985Z,92385.22
2022-08-07T02:15:18.790Z,92388.25
2022-08-07T02:18:06.626Z,92382.88
2022-08-07T02:20:57.364Z,92387.88
2022-08-07T02:23:45.181Z,92380.63
2022-08-07T02:26:34.658Z,92381.41
2022-08-07T02:29:23.867Z,92385.53
2022-08-07T02:32:11.463Z,92387.09
2022-08-07T02:35:00.997Z,92383.69
2022-08-07T02:37:48.722Z,92377.66
2022-08-07T02:40:36.396Z,92382.19
2022-08-07T02:43:24.162Z,92379.91
2022-08-07T02:46:14.469Z,92377.25
2022-08-07T02:49:03.278Z,92371.50
2022-08-07T02:51:52.849Z,92372.19
2022-08-07T02:54:41.194Z,92371.81
2022-08-07T02:57:31.185Z,92370.72
2022-08-07T03:00:22.665Z,92371.91
2022-08-07T03:03:13.520Z,92365.00
2022-08-07T03:06:16.482Z,92363.56
2022-08-07T03:09:13.280Z,92358.03
2022-08-07T03:12:02.874Z,92357.75
2022-08-07T03:14:52.597Z,92359.78
2022-08-07T03:17:52.875Z,92349.16
2022-08-07T03:20:41.739Z,92344.75
2022-08-07T03:23:33.796Z,92342.84
2022-08-07T03:26:23.492Z,92337.22
2022-08-07T03:29:14.671Z,92336.88
2022-08-07T03:32:02.539Z,92340.00
2022-08-07T03:35:16.929Z,92340.44
2022-08-07T03:37:58.641Z,92341.53
2022-08-07T03:40:46.382Z,92346.19
2022-08-07T03:43:44.151Z,92345.00
2022-08-07T03:47:13.481Z,92345.84
2022-08-07T03:49:53.658Z,92344.16
2022-08-07T03:52:41.351Z,92340.59
2022-08-07T03:55:52.796Z,92345.06
2022-08-07T03:59:08.746Z,92337.16
2022-08-07T04:01:45.413Z,92333.38
2022-08-07T04:04:33.404Z,92332.22
2022-08-07T04:07:22.916Z,92334.88
2022-08-07T04:10:15.572Z,92326.31
2022-08-07T04:13:27.785Z,92333.72
2022-08-07T04:16:15.529Z,92334.56
2022-08-07T04:19:18.073Z,92326.66
2022-08-07T04:22:12.207Z,92337.41
2022-08-07T04:25:02.310Z,92338.47
2022-08-07T04:27:59.035Z,92338.47
2022-08-07T04:30:55.339Z,92331.41
2022-08-07T04:33:45.025Z,92341.22
2022-08-07T04:36:32.651Z,92344.97
2022-08-07T04:39:25.415Z,92350.56
2022-08-07T04:42:13.495Z,92342.81
2022-08-07T04:45:03.227Z,92349.44
2022-08-07T04:47:56.885Z,92355.53
2022-08-07T04:50:52.910Z,92365.06
2022-08-07T04:54:05.746Z,92363.59
2022-08-07T04:58:10.351Z,92371.19
2022-08-07T05:00:11.363Z,92373.34
2022-08-07T05:03:02.318Z,92378.00
2022-08-07T05:06:16.307Z,92375.31
2022-08-07T05:09:07.516Z,92375.31
2022-08-07T05:11:58.576Z,92379.81
2022-08-07T05:14:53.681Z,92379.38
2022-08-07T05:17:50.970Z,92376.41
2022-08-07T05:20:40.766Z,92383.22
2022-08-07T05:23:31.003Z,92382.06
2022-08-07T05:26:23.627Z,92386.69
2022-08-07T05:29:11.463Z,92389.56
2022-08-07T05:32:01.942Z,92380.56
2022-08-07T05:34:51.094Z,92377.72
2022-08-07T05:37:40.853Z,92374.59
2022-08-07T05:40:30.046Z,92378.00
2022-08-07T05:43:49.509Z,92383.59
2022-08-07T05:46:29.510Z,92376.34
2022-08-07T05:49:17.292Z,92382.28
2022-08-07T05:52:04.957Z,92384.47
2022-08-07T05:54:55.352Z,92392.78
2022-08-07T05:57:44.892Z,92390.94
2022-08-07T06:00:32.682Z,92397.75
2022-08-07T06:03:20.289Z,92399.75
2022-08-07T06:06:09.930Z,92408.03
2022-08-07T06:09:05.270Z,92404.09
2022-08-07T06:11:52.944Z,92401.66
2022-08-07T06:14:40.542Z,92401.84
2022-08-07T06:17:37.392Z,92407.69
2022-08-07T06:20:49.723Z,92399.88
2022-08-07T06:24:37.160Z,92402.19
2022-08-07T06:26:41.194Z,92402.47
2022-08-07T06:29:29.137Z,92414.56
2022-08-07T06:32:16.971Z,92411.25
2022-08-07T06:35:10.622Z,92411.34
2022-08-07T06:38:05.727Z,92412.72
2022-08-07T06:40:55.917Z,92410.44
2022-08-07T06:43:46.281Z,92411.19
2022-08-07T06:46:53.734Z,92416.50
2022-08-07T06:49:58.413Z,92415.50
2022-08-07T06:52:46.565Z,92417.38
2022-08-07T06:56:00.318Z,92420.44
2022-08-07T07:00:14.773Z,92415.13
2022-08-07T07:01:55.832Z,92407.56
2022-08-07T07:04:54.929Z,92409.06
2022-08-07T07:08:00.239Z,92406.06
2022-08-07T07:10:56.587Z,92409.06
2022-08-07T07:13:57.632Z,92416.28
2022-08-07T07:16:51.133Z,92407.16
2022-08-07T07:19:56.404Z,92406.41
2022-08-07T07:24:09.263Z,92411.31
2022-08-07T07:26:32.120Z,92406.75
2022-08-07T07:29:56.517Z,92412.06
2022-08-07T07:32:10.787Z,92410.91
2022-08-07T07:34:58.419Z,92408.47
2022-08-07T07:37:56.022Z,92402.91
2022-08-07T07:40:46.910Z,92394.94
2022-08-07T07:44:13.969Z,92395.75
2022-08-07T07:46:55.309Z,92388.91
2022-08-07T07:50:36.038Z,92390.72
2022-08-07T07:52:55.697Z,92397.19
2022-08-07T07:55:45.719Z,92397.19
2022-08-07T07:58:45.216Z,92400.69
2022-08-07T08:02:04.781Z,92397.97
2022-08-07T08:04:42.562Z,92399.00
2022-08-07T08:07:35.876Z,92400.97
2022-08-07T08:10:35.637Z,92398.69
2022-08-07T08:13:26.485Z,92393.25
2022-08-07T08:16:24.981Z,92388.03
2022-08-07T08:19:17.673Z,92391.34
2022-08-07T08:22:17.117Z,92392.88
2022-08-07T08:25:24.907Z,92393.13
2022-08-07T08:28:12.603Z,92397.63
2022-08-07T08:31:05.133Z,92400.91
2022-08-07T08:33:55.341Z,92398.41
2022-08-07T08:36:46.329Z,92402.31
2022-08-07T08:39:39.777Z,92402.94
2022-08-07T08:42:41.605Z,92399.34
2022-08-07T08:45:59.607Z,92394.88
2022-08-07T08:48:38.712Z,92399.91
2022-08-07T08:52:00.974Z,92396.97
2022-08-07T08:54:35.243Z,92389.75
2022-08-07T08:57:26.690Z,92400.19
2022-08-07T09:00:18.161Z,92399.13
2022-08-07T09:03:07.514Z,92397.34
2022-08-07T09:05:55.831Z,92397.53
2022-08-07T09:08:44.178Z,92394.47
2022-08-07T09:11:43.484Z,92393.06
2022-08-07T09:14:42.130Z,92398.97
2022-08-07T09:17:58.690Z,92391.19
2022-08-07T09:20:58.668Z,92396.34
2022-08-07T09:24:31.147Z,92389.72
2022-08-07T09:26:56.969Z,92392.63
2022-08-07T09:30:05.933Z,92399.84
2022-08-07T09:32:52.345Z,92396.31
2022-08-07T09:36:05.469Z,92402.34
2022-08-07T09:38:49.978Z,92396.34
2022-08-07T09:41:43.249Z,92403.22
2022-08-07T09:44:58.358Z,92401.50
2022-08-07T09:48:00.341Z,92406.97
2022-08-07T09:50:46.217Z,92395.00
2022-08-07T09:53:41.215Z,92394.50
2022-08-07T09:56:37.495Z,92390.75
2022-08-07T09:59:35.639Z,92396.19
2022-08-07T10:02:32.469Z,92389.44
2022-08-07T10:06:01.236Z,92396.34
2022-08-07T10:08:29.634Z,92390.66
2022-08-07T10:12:02.287Z,92395.84
2022-08-07T10:14:31.108Z,92393.63
2022-08-07T10:17:18.980Z,92403.50
2022-08-07T10:20:06.634Z,92393.56
2022-08-07T10:23:00.672Z,92392.09
2022-08-07T10:25:51.927Z,92390.53
2022-08-07T10:28:40.738Z,92390.59
2022-08-07T10:31:31.499Z,92390.41
2022-08-07T10:34:27.182Z,92387.13
2022-08-07T10:37:26.121Z,92376.00
2022-08-07T10:40:30.369Z,92374.38
2022-08-07T10:43:19.487Z,92376.91
2022-08-07T10:46:22.184Z,92390.03
2022-08-07T10:49:09.790Z,92385.72
2022-08-07T10:52:12.924Z,92381.59
2022-08-07T10:55:21.019Z,92384.09
2022-08-07T10:58:09.069Z,92382.78
2022-08-07T11:00:57.940Z,92387.88
2022-08-07T11:03:52.491Z,92389.66
2022-08-07T11:06:44.579Z,92382.47
2022-08-07T11:10:07.924Z,92386.47
2022-08-07T11:12:39.786Z,92373.03
2022-08-07T11:15:33.037Z,92375.78
2022-08-07T11:18:20.651Z,92370.50
2022-08-07T11:21:12.047Z,92377.22
2022-08-07T11:24:01.855Z,92373.69
2022-08-07T11:26:50.510Z,92378.03
2022-08-07T11:29:42.214Z,92378.84
2022-08-07T11:32:31.886Z,92377.78
2022-08-07T11:35:25.295Z,92377.84
2022-08-07T11:38:17.336Z,92377.38
2022-08-07T11:41:05.595Z,92372.94
2022-08-07T11:44:10.780Z,92371.13
2022-08-07T11:47:00.483Z,92374.16
2022-08-07T11:50:25.223Z,92377.16
2022-08-07T11:52:55.728Z,92371.94
2022-08-07T11:56:25.083Z,92380.09
2022-08-07T11:58:50.881Z,92385.38
2022-08-07T12:02:01.190Z,92372.63
2022-08-07T12:04:46.018Z,92371.88
2022-08-07T12:07:39.870Z,92371.22
2022-08-07T12:10:27.738Z,92372.06
2022-08-07T12:13:18.621Z,92361.28
2022-08-07T12:16:30.651Z,92366.13
2022-08-07T12:19:21.765Z,92371.91
2022-08-07T12:22:39.327Z,92362.81
2022-08-07T12:26:00.242Z,92367.06
2022-08-07T12:28:30.864Z,92367.06
2022-08-07T12:31:22.373Z,92362.75
2022-08-07T12:34:11.376Z,92363.66
2022-08-07T12:36:58.996Z,92355.13
2022-08-07T12:39:50.907Z,92352.81
2022-08-07T12:42:39.015Z,92359.16
2022-08-07T12:45:42.667Z,92359.38
2022-08-07T12:48:51.766Z,92357.31
2022-08-07T12:51:51.364Z,92358.22
2022-08-07T12:54:55.025Z,92356.72
2022-08-07T12:58:00.397Z,92361.28
2022-08-07T13:00:50.657Z,92351.28
2022-08-07T13:03:55.024Z,92344.50
2022-08-07T13:07:00.037Z,92337.63
2022-08-07T13:10:19.806Z,92345.34
2022-08-07T13:12:56.644Z,92345.69
2022-08-07T13:15:44.895Z,92337.53
2022-08-07T13:18:32.523Z,92344.94
2022-08-07T13:21:37.174Z,92346.13
2022-08-07T13:24:30.494Z,92339.66
2022-08-07T13:27:20.672Z,92336.09
2022-08-07T13:30:08.673Z,92330.00
2022-08-07T13:34:14.789Z,92322.53
2022-08-07T13:36:17.810Z,92326.16
2022-08-07T13:39:12.876Z,92319.31
2022-08-07T13:42:13.190Z,92311.25
2022-08-07T13:45:21.069Z,92318.63
2022-08-07T13:48:10.510Z,92313.56
2022-08-07T13:51:27.637Z,92316.84
2022-08-07T13:54:22.420Z,92309.78
2022-08-07T13:57:10.264Z,92318.41
2022-08-07T14:00:02.048Z,92317.16
2022-08-07T14:02:53.981Z,92314.31
2022-08-07T14:05:41.724Z,92311.66
2022-08-07T14:08:29.499Z,92304.47
2022-08-07T14:11:17.408Z,92314.41
2022-08-07T14:14:05.254Z,92318.16
2022-08-07T14:16:53.488Z,92308.56
2022-08-07T14:20:42.162Z,92320.50
2022-08-07T14:22:49.799Z,92313.97
2022-08-07T14:25:39.692Z,92298.34
2022-08-07T14:28:57.290Z,92299.69
2022-08-07T14:31:43.459Z,92305.72
2022-08-07T14:34:45.910Z,92297.28
2022-08-07T14:37:39.284Z,92302.81
2022-08-07T14:40:29.344Z,92292.94
2022-08-07T14:46:31.227Z,92305.22
2022-08-07T14:49:56.686Z,92304.88
2022-08-07T14:52:28.730Z,92294.78
2022-08-07T14:55:17.688Z,92298.97
2022-08-07T14:58:05.729Z,92297.69
2022-08-07T15:00:53.332Z,92289.34
2022-08-07T15:03:52.767Z,92290.38
2022-08-07T15:06:40.899Z,92294.78
2022-08-07T15:09:57.490Z,92298.03
2022-08-07T15:12:43.131Z,92295.41
2022-08-07T15:15:42.832Z,92286.25
2022-08-07T15:18:34.847Z,92294.69
2022-08-07T15:21:58.459Z,92305.31
2022-08-07T15:27:38.766Z,92311.75
2022-08-07T15:31:04.905Z,92304.63
2022-08-07T15:33:53.571Z,92296.44
2022-08-07T15:39:57.825Z,92298.78
2022-08-07T15:42:47.972Z,92282.47
2022-08-07T15:45:56.613Z,92293.44
2022-08-07T15:49:12.010Z,92295.72
2022-08-07T15:54:45.602Z,92295.88
2022-08-07T15:57:47.347Z,92294.94
2022-08-07T16:00:36.600Z,92296.69
2022-08-07T16:03:46.294Z,92294.44
2022-08-07T16:06:33.159Z,92294.53
2022-08-07T16:09:22.804Z,92297.69
2022-08-07T16:12:12.127Z,92292.56
2022-08-07T16:14:41.656Z,92291.25
2022-08-07T16:17:15.077Z,92293.44
2022-08-07T16:19:58.396Z,92291.44
2022-08-07T16:22:33.674Z,92290.59
2022-08-07T16:25:07.491Z,92284.22
2022-08-07T16:27:39.979Z,92285.09
2022-08-07T16:30:30.057Z,92285.34
2022-08-07T16:32:56.067Z,92287.09
2022-08-07T16:35:51.857Z,92292.44
2022-08-07T16:38:11.370Z,92295.03
2022-08-07T16:40:57.031Z,92293.75
2022-08-07T16:44:02.348Z,92292.63
2022-08-07T16:50:26.731Z,92297.53
2022-08-07T16:51:57.570Z,92298.34
2022-08-07T16:54:35.197Z,92299.06
2022-08-07T16:57:06.488Z,92299.47
2022-08-07T16:59:47.127Z,92299.78
2022-08-07T17:02:14.745Z,92299.00
2022-08-07T17:05:01.955Z,92296.94
2022-08-07T17:07:55.760Z,92293.91
2022-08-07T17:10:30.099Z,92285.72
2022-08-07T17:13:01.059Z,92299.88
2022-08-07T17:15:44.289Z,92297.22
2022-08-07T17:18:17.998Z,92296.78
2022-08-07T17:20:46.650Z,92292.78
2022-08-07T17:23:14.093Z,92289.34
2022-08-07T17:25:51.538Z,92297.03
2022-08-07T17:28:20.069Z,92295.63
2022-08-07T17:30:57.760Z,92285.03
2022-08-07T17:34:08.989Z,92294.16
2022-08-07T17:36:13.714Z,92298.34
2022-08-07T17:38:50.339Z,92304.09
2022-08-07T17:42:04.984Z,92300.13
2022-08-07T17:44:06.493Z,92309.47
2022-08-07T17:46:40.305Z,92306.75
2022-08-07T17:49:09.209Z,92315.22
2022-08-07T17:51:49.320Z,92309.31
2022-08-07T17:54:29.903Z,92310.13
2022-08-07T17:57:18.898Z,92308.88
2022-08-07T17:59:46.773Z,92310.69
2022-08-07T18:02:27.195Z,92317.44
2022-08-07T18:04:54.600Z,92315.41
2022-08-07T18:07:23.970Z,92323.56
2022-08-07T18:10:06.092Z,92317.31
2022-08-07T18:12:35.688Z,92320.59
2022-08-07T18:15:08.834Z,92330.13
2022-08-07T18:18:45.046Z,92335.00
2022-08-07T18:21:10.001Z,92327.94
2022-08-07T18:23:42.215Z,92327.81
2022-08-07T18:26:01.218Z,92322.81
2022-08-07T18:28:35.349Z,92321.56
2022-08-07T18:31:03.517Z,92320.97
2022-08-07T18:33:30.784Z,92328.97
2022-08-07T18:35:58.433Z,92329.44
2022-08-07T18:38:57.298Z,92332.34
2022-08-07T18:41:20.482Z,92322.75
2022-08-07T18:43:49.976Z,92338.16
2022-08-07T18:46:26.966Z,92342.22
2022-08-07T18:50:35.354Z,92336.31
2022-08-07T18:52:34.873Z,92346.22
2022-08-07T18:54:36.023Z,92351.63
2022-08-07T18:57:30.413Z,92352.53
2022-08-07T19:00:33.221Z,92348.03
2022-08-07T19:02:59.018Z,92354.81
2022-08-07T19:05:27.062Z,92361.06
2022-08-07T19:08:15.972Z,92362.28
2022-08-07T19:10:51.803Z,92364.25
2022-08-07T19:13:21.968Z,92367.72
2022-08-07T19:16:02.860Z,92369.84
2022-08-07T19:18:44.645Z,92369.91
2022-08-07T19:21:44.010Z,92371.00
2022-08-07T19:24:01.964Z,92366.22
2022-08-07T19:26:39.624Z,92361.91
2022-08-07T19:31:02.235Z,92366.88
2022-08-07T19:32:17.717Z,92373.81
2022-08-07T19:34:53.992Z,92376.09
2022-08-07T19:37:23.004Z,92371.53
2022-08-07T19:39:57.856Z,92373.31
2022-08-07T19:42:31.988Z,92371.47
2022-08-07T19:45:09.962Z,92380.78
2022-08-07T19:47:39.256Z,92380.28
2022-08-07T19:50:41.499Z,92382.13
2022-08-07T19:53:01.086Z,92376.91
2022-08-07T19:55:57.461Z,92371.69
2022-08-07T19:58:28.332Z,92376.28
2022-08-07T20:00:57.852Z,92377.94
2022-08-07T20:03:35.318Z,92378.91
2022-08-07T20:06:04.425Z,92378.81
2022-08-07T20:08:32.805Z,92379.78
2022-08-07T20:11:02.116Z,92370.75
2022-08-07T20:13:32.364Z,92372.91
2022-08-07T20:15:59.671Z,92369.09
2022-08-07T20:18:32.669Z,92368.19
2022-08-07T20:21:00.779Z,92366.16
2022-08-07T20:23:42.993Z,92361.78
2022-08-07T20:26:10.774Z,92363.03
2022-08-07T20:28:38.412Z,92361.25
2022-08-07T20:31:06.413Z,92362.47
2022-08-07T20:33:37.553Z,92360.28
2022-08-07T20:36:05.664Z,92364.63
2022-08-07T20:38:33.244Z,92363.63
2022-08-07T20:41:00.562Z,92371.16
2022-08-07T20:43:31.271Z,92371.25
2022-08-07T20:46:27.636Z,92366.78
2022-08-07T20:49:53.958Z,92365.00
2022-08-07T20:51:36.056Z,92369.91
2022-08-07T20:54:09.402Z,92370.31
2022-08-07T20:56:41.587Z,92369.50
2022-08-07T21:00:04.291Z,92368.09
2022-08-07T21:02:00.823Z,92371.38
2022-08-07T21:04:28.323Z,92369.75
2022-08-07T21:06:56.876Z,92367.59
2022-08-07T21:09:27.847Z,92361.63
2022-08-07T21:11:55.233Z,92367.00
2022-08-07T21:14:32.515Z,92360.31
2022-08-07T21:18:02.188Z,92363.06
2022-08-07T21:19:51.453Z,92361.13
2022-08-07T21:22:33.262Z,92356.53
2022-08-07T21:25:00.917Z,92358.66
2022-08-07T21:27:39.816Z,92358.19
2022-08-07T21:30:07.708Z,92361.78
2022-08-07T21:32:47.459Z,92358.34
2022-08-07T21:35:17.012Z,92362.84
2022-08-07T21:38:02.375Z,92352.56
2022-08-07T21:40:35.726Z,92361.31
2022-08-07T21:43:03.591Z,92356.78
2022-08-07T21:46:08.492Z,92354.13
2022-08-07T21:48:33.318Z,92356.16
2022-08-07T21:51:02.717Z,92354.22
2022-08-07T21:53:31.380Z,92353.50
2022-08-07T21:56:04.243Z,92348.16
2022-08-07T21:58:32.817Z,92357.66
2022-08-07T22:01:00.295Z,92353.16
2022-08-07T22:03:30.906Z,92362.56
2022-08-07T22:05:59.077Z,92360.69
2022-08-07T22:08:26.381Z,92361.25
2022-08-07T22:10:55.352Z,92363.16
2022-08-07T22:13:24.618Z,92369.59
2022-08-07T22:16:45.608Z,92365.47
2022-08-07T22:18:57.117Z,92357.88
2022-08-07T22:21:24.834Z,92363.44
2022-08-07T22:24:12.065Z,92366.84
2022-08-07T22:26:44.438Z,92369.13
2022-08-07T22:29:13.998Z,92374.47
2022-08-07T22:31:56.421Z,92370.72
2022-08-07T22:34:29.010Z,92365.75
2022-08-07T22:36:58.920Z,92363.88
2022-08-07T22:39:26.285Z,92370.34
2022-08-07T22:42:04.079Z,92368.50
2022-08-07T22:44:58.328Z,92374.94
2022-08-07T22:47:26.874Z,92375.69
2022-08-07T22:52:36.857Z,92367.72
2022-08-07T22:55:17.501Z,92375.25
2022-08-07T22:57:50.082Z,92366.22
2022-08-07T23:00:17.420Z,92366.56
2022-08-07T23:02:44.801Z,92366.13
2022-08-07T23:06:08.270Z,92360.50
2022-08-07T23:07:59.368Z,92372.97
2022-08-07T23:10:37.380Z,92378.34
2022-08-07T23:13:07.203Z,92379.81
2022-08-07T23:16:06.273Z,92372.59
2022-08-07T23:18:22.380Z,92368.88
2022-08-07T23:20:53.799Z,92362.38
2022-08-07T23:24:05.680Z,92363.91
2022-08-07T23:26:09.185Z,92362.41
2022-08-07T23:28:36.457Z,92371.50
2022-08-07T23:31:13.902Z,92364.31
2022-08-07T23:34:34.064Z,92370.38
2022-08-07T23:36:33.533Z,92368.84
2022-08-07T23:39:01.735Z,92366.53
2022-08-07T23:42:01.638Z,92363.47
2022-08-07T23:44:29.460Z,92367.72
2022-08-07T23:46:57.220Z,92377.19
2022-08-07T23:49:24.820Z,92375.22
2022-08-07T23:53:06.607Z,92380.56
2022-08-07T23:54:57.103Z,92369.63
2022-08-07T23:57:24.412Z,92371.94
